Time;durP1;ratioP1;P1;durP2;ratioP2;P2;SDS_P1;SDS_P2;PMS_P1;PMS_P2;Temp;Humidity;BMP_temperature;BMP_pressure;BME280_temperature;BME280_humidity;BME280_pressure;Samples;Min_cycle;Max_cycle;Signal;HPM_P1;HPM_P2
2021/05/05 00:02:01;;;;;;;9.57;1.63;;;7.10;90.70;;;;;;4973807;28;20437;-85
2021/05/05 00:04:27;;;;;;;9.88;1.60;;;7.10;90.60;;;;;;4974795;28;20050;-85
2021/05/05 00:06:57;;;;;;;12.93;1.98;;;7.10;90.50;;;;;;4974597;28;20069;-85
2021/05/05 00:09:24;;;;;;;8.68;1.52;;;7.10;90.50;;;;;;4973364;28;20065;-85
2021/05/05 00:11:52;;;;;;;12.18;1.90;;;7.10;90.50;;;;;;4974531;28;20046;-85
2021/05/05 00:14:19;;;;;;;11.93;1.70;;;7.20;90.50;;;;;;4974678;28;20418;-85
2021/05/05 00:16:45;;;;;;;13.90;2.28;;;7.10;90.60;;;;;;4973872;28;20047;-85
2021/05/05 00:19:12;;;;;;;12.82;2.08;;;7.20;90.60;;;;;;4974380;28;20046;-85
2021/05/05 00:21:39;;;;;;;11.38;1.90;;;7.20;90.60;;;;;;4974384;28;20051;-85
2021/05/05 00:24:05;;;;;;;13.07;2.10;;;7.20;90.60;;;;;;4973653;28;20399;-85
2021/05/05 00:26:31;;;;;;;11.02;1.88;;;7.20;90.60;;;;;;4974562;28;20046;-85
2021/05/05 00:28:56;;;;;;;12.40;2.10;;;7.20;90.60;;;;;;4973971;28;20074;-84
2021/05/05 00:31:22;;;;;;;14.32;1.92;;;7.10;90.50;;;;;;4973588;28;20127;-84
2021/05/05 00:33:48;;;;;;;10.60;2.10;;;7.10;90.50;;;;;;4974179;28;20043;-82
2021/05/05 00:36:14;;;;;;;10.02;1.98;;;7.10;90.40;;;;;;4974529;28;20061;-85
2021/05/05 00:38:40;;;;;;;9.45;1.80;;;7.10;90.40;;;;;;4972773;28;20059;-85
2021/05/05 00:41:10;;;;;;;13.68;2.08;;;7.10;90.40;;;;;;4974216;28;20062;-85
2021/05/05 00:43:36;;;;;;;10.13;1.90;;;7.10;90.40;;;;;;4974141;28;20051;-84
2021/05/05 00:46:03;;;;;;;13.43;2.10;;;7.10;90.40;;;;;;4973618;28;20050;-85
2021/05/05 00:48:29;;;;;;;13.20;2.30;;;7.10;90.40;;;;;;4974363;28;20070;-85
2021/05/05 00:50:56;;;;;;;14.07;2.10;;;7.10;90.40;;;;;;4974038;28;20479;-86
2021/05/05 00:53:22;;;;;;;10.13;1.80;;;7.10;90.40;;;;;;4973404;28;20042;-84
2021/05/05 00:55:48;;;;;;;11.50;1.90;;;7.10;90.40;;;;;;4974041;28;20047;-84
2021/05/05 00:58:15;;;;;;;12.07;2.15;;;7.10;90.50;;;;;;4972998;28;20054;-86
2021/05/05 01:00:41;;;;;;;17.13;2.10;;;7.10;90.70;;;;;;4973476;28;20061;-85
2021/05/05 01:03:07;;;;;;;14.13;2.35;;;7.10;90.40;;;;;;4969386;28;20049;-85
2021/05/05 01:05:33;;;;;;;13.07;2.33;;;7.10;90.40;;;;;;4961670;28;20043;-86
2021/05/05 01:07:59;;;;;;;15.52;2.10;;;7.10;90.30;;;;;;4966761;28;20057;-84
2021/05/05 01:10:25;;;;;;;12.63;1.95;;;7.10;90.30;;;;;;4960550;28;20499;-85
2021/05/05 01:12:50;;;;;;;12.05;2.00;;;7.10;90.30;;;;;;4962336;28;20058;-85
2021/05/05 01:15:17;;;;;;;9.95;2.00;;;7.10;90.20;;;;;;4966529;28;20051;-85
2021/05/05 01:17:43;;;;;;;16.90;2.10;;;7.00;90.20;;;;;;4961496;28;20050;-85
2021/05/05 01:20:10;;;;;;;10.52;2.00;;;7.00;90.20;;;;;;4973108;28;20047;-86
2021/05/05 01:22:37;;;;;;;13.10;2.13;;;7.00;90.10;;;;;;4974031;28;20129;-83
2021/05/05 01:25:04;;;;;;;16.50;2.45;;;7.00;90.10;;;;;;4973846;28;20137;-86
2021/05/05 01:27:29;;;;;;;12.13;1.90;;;7.00;90.10;;;;;;4972663;28;20093;-85
2021/05/05 01:29:55;;;;;;;10.45;1.92;;;7.00;90.10;;;;;;4973659;28;20054;-84
2021/05/05 01:32:21;;;;;;;13.43;2.15;;;7.00;90.10;;;;;;4974063;28;20510;-86
2021/05/05 01:34:48;;;;;;;17.02;2.15;;;6.90;90.10;;;;;;4972896;28;20046;-85
2021/05/05 01:37:14;;;;;;;13.40;2.22;;;6.90;90.10;;;;;;4973811;28;20047;-85
2021/05/05 01:39:41;;;;;;;18.85;2.40;;;6.90;90.10;;;;;;4973125;28;20066;-85
2021/05/05 01:42:07;;;;;;;13.55;2.33;;;6.90;90.20;;;;;;4972939;28;20431;-85
2021/05/05 01:44:36;;;;;;;15.23;2.10;;;6.90;90.30;;;;;;4973935;28;20126;-85
2021/05/05 01:47:03;;;;;;;12.52;2.10;;;6.90;90.30;;;;;;4973409;28;20092;-85
2021/05/05 01:49:29;;;;;;;15.38;2.08;;;6.90;90.30;;;;;;4973007;28;20058;-85
2021/05/05 01:51:57;;;;;;;15.55;2.25;;;6.90;90.30;;;;;;4973395;28;20042;-86
2021/05/05 01:54:24;;;;;;;17.55;2.42;;;6.90;90.20;;;;;;4973615;28;20050;-85
2021/05/05 01:56:50;;;;;;;17.75;2.65;;;6.90;90.20;;;;;;4972342;28;20058;-83
2021/05/05 01:59:16;;;;;;;10.15;2.30;;;6.90;90.20;;;;;;4973405;28;20050;-84
2021/05/05 02:01:42;;;;;;;13.90;2.40;;;6.80;90.20;;;;;;4972718;28;20415;-83
2021/05/05 02:04:07;;;;;;;12.38;1.88;;;6.80;90.20;;;;;;4973594;28;20493;-83
2021/05/05 02:06:33;;;;;;;15.55;2.15;;;6.80;90.20;;;;;;4973479;28;20050;-81
2021/05/05 02:08:59;;;;;;;13.23;1.90;;;6.80;90.20;;;;;;4972497;28;20046;-81
2021/05/05 02:11:26;;;;;;;11.02;1.75;;;6.80;90.30;;;;;;4973651;28;20454;-83
2021/05/05 02:13:52;;;;;;;12.15;2.03;;;6.80;90.30;;;;;;4975724;28;20047;-81
2021/05/05 02:16:18;;;;;;;10.27;2.05;;;6.80;90.30;;;;;;4976522;28;20066;-82
2021/05/05 02:18:44;;;;;;;12.75;2.13;;;6.70;90.30;;;;;;4976716;28;20058;-81
2021/05/05 02:21:10;;;;;;;8.82;1.63;;;6.70;90.30;;;;;;4976883;28;20383;-84
2021/05/05 02:23:36;;;;;;;9.80;1.70;;;6.70;90.30;;;;;;4976254;28;20085;-85
2021/05/05 02:26:02;;;;;;;13.65;1.80;;;6.70;90.30;;;;;;4965591;28;20075;-86
2021/05/05 02:28:29;;;;;;;9.57;2.10;;;6.70;90.40;;;;;;4977069;28;20042;-85
2021/05/05 02:30:55;;;;;;;10.77;1.70;;;6.70;90.40;;;;;;4975949;28;20125;-85
2021/05/05 02:33:21;;;;;;;7.88;1.38;;;6.70;90.40;;;;;;4971639;28;20054;-85
2021/05/05 02:35:46;;;;;;;11.20;1.90;;;6.60;90.30;;;;;;4974707;28;20055;-85
2021/05/05 02:38:13;;;;;;;6.60;1.40;;;6.60;90.30;;;;;;4975663;28;20070;-84
2021/05/05 02:40:38;;;;;;;11.18;1.70;;;6.60;90.20;;;;;;4976444;28;20047;-86
2021/05/05 02:43:04;;;;;;;10.60;1.63;;;6.60;90.30;;;;;;4976617;28;20050;-85
2021/05/05 02:45:30;;;;;;;8.30;1.45;;;6.60;90.20;;;;;;4975477;28;20058;-85
2021/05/05 02:47:56;;;;;;;9.15;1.60;;;6.60;90.10;;;;;;4976164;28;20125;-85
2021/05/05 02:50:22;;;;;;;9.40;1.90;;;6.50;90.10;;;;;;4975951;28;20046;-86
2021/05/05 02:52:47;;;;;;;9.25;1.90;;;6.50;90.10;;;;;;4975126;28;20046;-86
2021/05/05 02:55:13;;;;;;;8.90;1.80;;;6.50;90.10;;;;;;4976213;28;20057;-86
2021/05/05 02:57:39;;;;;;;10.15;1.67;;;6.50;90.20;;;;;;4976091;28;20058;-86
2021/05/05 03:00:07;;;;;;;9.13;1.77;;;6.50;90.20;;;;;;4975222;28;20062;-86
2021/05/05 03:02:33;;;;;;;15.55;2.15;;;6.50;90.30;;;;;;4976273;28;20047;-86
2021/05/05 03:04:59;;;;;;;15.35;2.30;;;6.50;90.30;;;;;;4974902;28;20419;-86
2021/05/05 03:07:24;;;;;;;15.98;2.22;;;6.50;90.30;;;;;;4971869;28;20043;-86
2021/05/05 03:09:51;;;;;;;13.18;2.55;;;6.50;90.40;;;;;;4975317;28;20121;-86
2021/05/05 03:12:17;;;;;;;12.13;2.17;;;6.50;90.50;;;;;;4975466;28;20446;-85
2021/05/05 03:14:43;;;;;;;14.20;2.33;;;6.50;90.50;;;;;;4975499;28;20102;-86
2021/05/05 03:17:09;;;;;;;16.00;2.50;;;6.50;90.60;;;;;;4975845;28;20101;-85
2021/05/05 03:19:35;;;;;;;15.63;2.40;;;6.50;90.60;;;;;;4975104;28;20046;-85
2021/05/05 03:22:01;;;;;;;15.40;2.63;;;6.50;90.70;;;;;;4975417;28;20499;-85
2021/05/05 03:24:27;;;;;;;17.50;2.60;;;6.50;90.70;;;;;;4975040;28;20053;-84
2021/05/05 03:26:53;;;;;;;18.58;2.85;;;6.60;90.80;;;;;;4973261;28;20204;-83
2021/05/05 03:29:18;;;;;;;16.05;2.42;;;6.60;90.80;;;;;;4975677;28;20105;-85
2021/05/05 03:31:44;;;;;;;19.75;2.80;;;6.60;90.90;;;;;;4975303;28;20062;-84
2021/05/05 03:34:10;;;;;;;16.17;2.45;;;6.60;90.90;;;;;;4974770;28;20047;-85
2021/05/05 03:36:36;;;;;;;14.10;2.80;;;6.60;90.80;;;;;;4975243;28;20062;-85
2021/05/05 03:39:06;;;;;;;19.27;2.33;;;6.60;90.80;;;;;;4975414;28;20055;-85
2021/05/05 03:41:32;;;;;;;13.50;2.75;;;6.50;90.80;;;;;;4974638;28;20050;-83
2021/05/05 03:43:58;;;;;;;17.42;2.47;;;6.60;90.80;;;;;;4975119;28;20054;-84
2021/05/05 03:46:24;;;;;;;16.30;2.85;;;6.50;90.80;;;;;;4975240;28;20282;-85
2021/05/05 03:48:50;;;;;;;16.60;2.25;;;6.50;90.70;;;;;;4974272;28;20055;-83
2021/05/05 03:51:15;;;;;;;17.35;2.50;;;6.50;90.70;;;;;;4974483;28;20062;-84
2021/05/05 03:53:41;;;;;;;17.95;2.90;;;6.50;90.70;;;;;;4974670;28;20047;-83
2021/05/05 03:56:07;;;;;;;15.18;2.50;;;6.50;90.70;;;;;;4972177;28;20095;-83
2021/05/05 03:58:33;;;;;;;9.32;1.80;;;6.50;90.70;;;;;;4975057;28;20058;-85
2021/05/05 04:01:00;;;;;;;7.32;1.60;;;6.50;90.70;;;;;;4974684;28;20054;-84
2021/05/05 04:03:26;;;;;;;9.27;1.70;;;6.50;90.60;;;;;;4970723;28;20051;-84
2021/05/05 04:05:51;;;;;;;9.50;1.75;;;6.50;90.50;;;;;;4955192;28;20102;-85
2021/05/05 04:08:17;;;;;;;11.40;2.03;;;6.40;90.40;;;;;;4968792;28;20047;-84
2021/05/05 04:10:43;;;;;;;9.25;1.88;;;6.40;90.50;;;;;;4975052;28;20426;-84
2021/05/05 04:13:09;;;;;;;8.07;1.60;;;6.40;90.50;;;;;;4974265;28;20051;-85
2021/05/05 04:15:35;;;;;;;9.73;1.73;;;6.40;90.50;;;;;;4973972;28;20057;-84
2021/05/05 04:18:00;;;;;;;10.23;1.58;;;6.40;90.50;;;;;;4974151;28;20054;-84
2021/05/05 04:20:26;;;;;;;12.07;2.00;;;6.40;90.50;;;;;;4974554;28;20053;-84
2021/05/05 04:22:52;;;;;;;17.02;2.70;;;6.40;90.50;;;;;;4973717;28;20051;-84
2021/05/05 04:25:18;;;;;;;11.85;2.00;;;6.40;90.50;;;;;;4969558;28;20454;-84
2021/05/05 04:27:46;;;;;;;11.27;1.75;;;6.30;90.50;;;;;;4955442;28;20051;-85
2021/05/05 04:30:13;;;;;;;13.52;2.20;;;6.30;90.60;;;;;;4957424;28;20051;-85
2021/05/05 04:32:40;;;;;;;14.23;2.30;;;6.30;90.60;;;;;;4969616;28;20042;-86
2021/05/05 04:35:07;;;;;;;11.43;2.05;;;6.30;90.60;;;;;;4963170;28;20051;-88
2021/05/05 04:37:33;;;;;;;11.32;2.22;;;6.30;90.50;;;;;;4954050;28;20047;-86
2021/05/05 04:40:01;;;;;;;15.38;2.20;;;6.30;90.50;;;;;;4970319;28;20069;-87
2021/05/05 04:42:27;;;;;;;12.35;2.20;;;6.30;90.50;;;;;;4974026;28;20045;-86
2021/05/05 04:44:52;;;;;;;13.98;2.75;;;6.30;90.40;;;;;;4969250;28;20498;-86
2021/05/05 04:47:18;;;;;;;12.60;2.15;;;6.30;90.40;;;;;;4973038;28;20085;-86
2021/05/05 04:49:44;;;;;;;15.68;2.65;;;6.30;90.30;;;;;;4972857;28;20046;-87
2021/05/05 04:52:09;;;;;;;13.82;2.60;;;6.30;90.70;;;;;;4972396;28;20104;-84
2021/05/05 04:54:35;;;;;;;18.60;2.55;;;6.30;90.30;;;;;;4973088;28;20125;-85
2021/05/05 04:57:01;;;;;;;18.45;2.88;;;6.30;90.40;;;;;;4972182;28;20055;-86
2021/05/05 04:59:27;;;;;;;11.68;1.95;;;6.30;90.40;;;;;;4971490;28;20051;-85
2021/05/05 05:01:52;;;;;;;16.17;2.72;;;6.40;90.50;;;;;;4969528;28;20054;-87
2021/05/05 05:04:19;;;;;;;17.35;2.92;;;6.40;90.80;;;;;;4974215;28;20125;-85
2021/05/05 05:06:44;;;;;;;20.83;2.78;;;6.40;90.50;;;;;;4973017;28;20081;-87
2021/05/05 05:09:10;;;;;;;16.80;2.60;;;6.40;90.50;;;;;;4972159;28;20039;-88
2021/05/05 05:11:36;;;;;;;17.38;3.05;;;6.40;90.60;;;;;;4972960;28;20046;-86
2021/05/05 05:14:02;;;;;;;18.40;2.70;;;6.40;90.50;;;;;;4973503;28;20054;-88
2021/05/05 05:16:27;;;;;;;20.65;3.08;;;6.40;90.50;;;;;;4973617;28;20114;-86
2021/05/05 05:18:53;;;;;;;19.40;3.03;;;6.50;90.50;;;;;;4969923;28;20054;-86
2021/05/05 05:21:19;;;;;;;20.40;3.72;;;6.50;90.40;;;;;;4972381;28;20505;-87
2021/05/05 05:23:45;;;;;;;19.25;2.97;;;6.50;90.40;;;;;;4972355;28;20054;-86
2021/05/05 05:26:11;;;;;;;20.25;3.00;;;6.50;90.30;;;;;;4972516;28;20053;-88
2021/05/05 05:28:37;;;;;;;20.42;3.00;;;6.50;90.30;;;;;;4971205;28;20063;-86
2021/05/05 05:31:03;;;;;;;15.57;3.33;;;6.50;90.10;;;;;;4970848;28;20133;-88
2021/05/05 05:33:29;;;;;;;17.38;3.45;;;6.60;90.10;;;;;;4973228;28;20043;-86
2021/05/05 05:35:55;;;;;;;19.60;2.90;;;6.60;90.10;;;;;;4971662;28;20419;-87
2021/05/05 05:38:21;;;;;;;14.85;2.78;;;6.60;90.10;;;;;;4972165;28;20454;-86
2021/05/05 05:40:46;;;;;;;17.85;2.75;;;6.60;90.10;;;;;;4968589;28;20491;-85
2021/05/05 05:43:12;;;;;;;19.60;3.08;;;6.60;90.10;;;;;;4972536;28;20043;-87
2021/05/05 05:45:38;;;;;;;19.23;2.70;;;6.60;90.10;;;;;;4970638;28;20491;-85
2021/05/05 05:48:06;;;;;;;13.80;2.58;;;6.60;90.10;;;;;;4972713;28;20050;-86
2021/05/05 05:50:31;;;;;;;13.15;2.58;;;6.60;90.00;;;;;;4975970;28;20051;-86
2021/05/05 05:52:57;;;;;;;18.25;2.40;;;6.70;90.00;;;;;;4971748;28;20053;-88
2021/05/05 05:55:25;;;;;;;23.10;3.47;;;6.60;90.00;;;;;;4973240;28;20047;-86
2021/05/05 05:57:52;;;;;;;14.52;2.88;;;6.70;90.10;;;;;;4975614;28;20501;-88
2021/05/05 06:00:19;;;;;;;18.50;3.15;;;6.70;90.10;;;;;;4972745;28;20066;-87
2021/05/05 06:02:44;;;;;;;19.80;3.00;;;6.70;90.10;;;;;;4974829;28;20082;-88
2021/05/05 06:05:11;;;;;;;16.50;2.55;;;6.70;90.10;;;;;;4975824;28;20070;-87
2021/05/05 06:07:37;;;;;;;18.48;2.60;;;6.80;90.10;;;;;;4976086;28;20039;-87
2021/05/05 06:10:04;;;;;;;21.48;2.80;;;6.80;90.00;;;;;;4976374;28;20058;-88
2021/05/05 06:12:30;;;;;;;13.20;2.55;;;6.80;90.30;;;;;;4977177;28;20490;-88
2021/05/05 06:14:57;;;;;;;12.52;2.20;;;6.80;89.70;;;;;;4973349;28;20501;-87
2021/05/05 06:17:24;;;;;;;18.40;2.33;;;6.80;89.40;;;;;;4976545;28;20130;-88
2021/05/05 06:19:49;;;;;;;14.75;2.00;;;6.80;89.20;;;;;;4973917;28;20061;-87
2021/05/05 06:22:15;;;;;;;13.07;2.08;;;6.90;89.00;;;;;;4975035;28;20410;-87
2021/05/05 06:24:41;;;;;;;15.77;2.28;;;6.90;88.60;;;;;;4969251;28;20047;-86
2021/05/05 06:27:07;;;;;;;12.73;2.17;;;7.00;88.50;;;;;;4971956;28;20082;-88
2021/05/05 06:29:34;;;;;;;14.43;2.05;;;7.00;88.30;;;;;;4972153;28;20129;-89
2021/05/05 06:32:00;;;;;;;19.00;2.22;;;7.10;88.40;;;;;;4975817;28;20101;-88
2021/05/05 06:34:25;;;;;;;10.77;2.17;;;7.10;88.60;;;;;;4976604;28;20060;-88
2021/05/05 06:36:51;;;;;;;16.35;2.33;;;7.10;88.70;;;;;;4973397;28;20035;-88
2021/05/05 06:39:17;;;;;;;13.50;2.22;;;7.20;88.50;;;;;;4973961;28;20050;-90
2021/05/05 06:41:42;;;;;;;13.90;2.42;;;7.30;88.50;;;;;;4972895;28;20077;-90
2021/05/05 06:44:09;;;;;;;12.75;2.38;;;7.30;88.50;;;;;;4974382;28;20490;-89
2021/05/05 06:46:35;;;;;;;14.27;2.08;;;7.40;88.70;;;;;;4975345;28;20102;-88
2021/05/05 06:49:02;;;;;;;17.85;2.83;;;7.40;88.50;;;;;;4974824;28;20047;-89
2021/05/05 06:51:28;;;;;;;17.30;2.45;;;7.50;88.40;;;;;;4972531;28;20047;-88
2021/05/05 06:53:54;;;;;;;12.90;2.45;;;7.50;88.20;;;;;;4970013;28;20050;-88
2021/05/05 06:56:22;;;;;;;18.02;2.90;;;7.50;88.40;;;;;;4973845;28;20047;-88
2021/05/05 06:58:47;;;;;;;13.90;2.33;;;7.60;88.50;;;;;;4956072;28;20138;-90
2021/05/05 07:01:13;;;;;;;21.08;2.83;;;7.60;88.40;;;;;;4971202;28;20051;-90
2021/05/05 07:03:39;;;;;;;21.45;2.75;;;7.60;88.30;;;;;;4974733;28;20046;-89
2021/05/05 07:06:04;;;;;;;18.75;2.40;;;7.60;88.10;;;;;;4972320;28;20047;-89
2021/05/05 07:08:30;;;;;;;19.50;2.88;;;7.70;87.60;;;;;;4973400;28;20046;-88
2021/05/05 07:10:56;;;;;;;16.30;2.75;;;7.70;87.20;;;;;;4973772;28;20157;-89
2021/05/05 07:13:22;;;;;;;14.60;2.13;;;7.70;87.20;;;;;;4973361;28;20051;-88
2021/05/05 07:15:48;;;;;;;14.13;2.22;;;7.80;87.40;;;;;;4970116;28;20051;-88
2021/05/05 07:18:14;;;;;;;16.13;2.53;;;7.80;86.80;;;;;;4973313;28;20054;-88
2021/05/05 07:20:39;;;;;;;19.88;2.80;;;7.90;86.80;;;;;;4973527;28;20491;-90
2021/05/05 07:23:05;;;;;;;18.35;2.60;;;8.00;86.80;;;;;;4968926;28;20047;-88
2021/05/05 07:25:31;;;;;;;15.98;2.58;;;8.00;86.50;;;;;;4990257;28;20093;-91
2021/05/05 07:27:58;;;;;;;14.23;2.75;;;8.10;86.50;;;;;;4963471;28;20230;-91
2021/05/05 07:30:24;;;;;;;19.85;3.20;;;8.10;86.20;;;;;;4965139;28;20047;-89
2021/05/05 07:32:50;;;;;;;13.25;2.63;;;8.10;86.10;;;;;;4975729;28;20071;-91
2021/05/05 07:35:17;;;;;;;14.02;2.75;;;8.10;86.30;;;;;;4974248;28;20043;-90
2021/05/05 07:43:38;;;;;;;18.25;2.58;;;8.10;87.30;;;;;;4981173;28;20082;-95
2021/05/05 07:51:01;;;;;;;21.98;3.00;;;8.10;86.70;;;;;;4956275;28;20051;-87
2021/05/05 07:53:27;;;;;;;16.02;2.42;;;8.20;86.30;;;;;;4974566;28;20070;-89
2021/05/05 07:55:55;;;;;;;15.00;2.47;;;8.30;85.70;;;;;;4964654;28;20123;-85
2021/05/05 07:58:21;;;;;;;14.32;2.42;;;8.30;84.80;;;;;;4968074;28;20043;-89
2021/05/05 08:00:47;;;;;;;12.75;2.10;;;8.30;84.60;;;;;;4974397;28;20490;-88
2021/05/05 08:03:13;;;;;;;10.57;2.22;;;8.30;84.40;;;;;;4975276;28;20049;-89
2021/05/05 08:05:39;;;;;;;11.57;2.30;;;8.40;84.50;;;;;;4975038;28;20399;-90
2021/05/05 08:08:08;;;;;;;14.07;1.80;;;8.40;84.10;;;;;;4974539;28;20058;-90
2021/05/05 08:10:33;;;;;;;15.57;1.95;;;8.40;83.90;;;;;;4975110;28;20054;-89
2021/05/05 08:12:59;;;;;;;9.50;1.60;;;8.50;84.20;;;;;;4974920;28;20538;-89
2021/05/05 08:15:27;;;;;;;8.27;1.52;;;8.50;84.00;;;;;;4973697;28;20491;-88
2021/05/05 08:17:54;;;;;;;9.80;1.95;;;8.60;83.80;;;;;;4974218;28;20047;-90
2021/05/05 08:20:20;;;;;;;11.27;2.00;;;8.60;83.60;;;;;;4975083;28;20051;-90
2021/05/05 08:22:45;;;;;;;9.60;1.20;;;8.70;83.70;;;;;;4974403;28;20555;-88
2021/05/05 08:25:11;;;;;;;7.25;1.10;;;8.70;83.90;;;;;;4972214;28;20057;-84
2021/05/05 08:27:37;;;;;;;5.40;1.10;;;8.60;83.80;;;;;;4974061;28;20138;-85
2021/05/05 08:30:04;;;;;;;5.47;0.85;;;8.50;84.10;;;;;;4973609;28;20139;-83
2021/05/05 08:32:30;;;;;;;2.85;0.88;;;8.30;84.60;;;;;;4962844;28;20057;-84
2021/05/05 08:34:55;;;;;;;5.20;1.05;;;8.20;85.30;;;;;;4960802;28;20051;-85
2021/05/05 08:37:21;;;;;;;5.55;1.10;;;8.10;86.10;;;;;;4961825;28;20043;-85
2021/05/05 08:39:46;;;;;;;6.40;1.00;;;8.00;86.60;;;;;;4964043;28;20098;-83
2021/05/05 08:42:12;;;;;;;8.38;1.20;;;7.90;86.80;;;;;;4974595;28;20047;-83
2021/05/05 08:44:41;;;;;;;5.95;1.30;;;7.90;87.20;;;;;;4973455;28;20050;-82
2021/05/05 08:47:06;;;;;;;5.32;1.10;;;7.80;87.60;;;;;;4974283;28;20146;-83
2021/05/05 08:49:32;;;;;;;8.48;1.40;;;7.80;88.10;;;;;;4973726;28;20043;-83
2021/05/05 08:52:00;;;;;;;9.65;1.35;;;7.80;88.40;;;;;;4974064;28;20494;-83
2021/05/05 08:54:25;;;;;;;10.30;1.70;;;7.80;88.90;;;;;;4974411;28;20047;-83
2021/05/05 08:56:51;;;;;;;10.10;1.73;;;7.90;89.40;;;;;;4973319;28;20054;-83
2021/05/05 08:59:18;;;;;;;8.57;1.50;;;7.90;89.80;;;;;;4974241;28;20065;-83
2021/05/05 09:01:44;;;;;;;8.45;1.73;;;8.00;90.00;;;;;;4973860;28;20511;-83
2021/05/05 09:04:10;;;;;;;10.35;1.55;;;8.10;90.20;;;;;;4973505;28;20047;-83
2021/05/05 09:06:52;;;;;;;8.40;1.70;;;8.20;90.10;;;;;;4974033;28;20083;-82
2021/05/05 09:09:43;;;;;;;8.18;1.40;;;8.20;89.80;;;;;;4974136;28;20058;-82
2021/05/05 09:12:17;;;;;;;12.85;2.28;;;8.30;89.60;;;;;;4973354;28;20054;-83
2021/05/05 09:15:11;;;;;;;11.00;1.80;;;8.30;89.40;;;;;;4973996;28;20050;-82
2021/05/05 09:17:44;;;;;;;15.70;2.30;;;8.30;89.40;;;;;;4972112;28;20078;-83
2021/05/05 09:20:17;;;;;;;9.88;2.05;;;8.40;89.40;;;;;;4973980;28;20055;-83
2021/05/05 09:22:50;;;;;;;13.02;2.22;;;8.40;89.60;;;;;;4973453;28;20059;-82
2021/05/05 09:25:29;;;;;;;15.15;2.40;;;8.50;89.40;;;;;;4973294;28;20056;-83
2021/05/05 09:28:14;;;;;;;13.07;2.38;;;8.50;89.20;;;;;;4973567;28;20050;-83
2021/05/05 09:30:45;;;;;;;12.13;2.33;;;8.60;88.60;;;;;;4973470;28;20043;-83
2021/05/05 09:33:23;;;;;;;12.98;2.33;;;8.60;88.20;;;;;;4973306;28;20531;-83
2021/05/05 09:35:53;;;;;;;9.65;1.60;;;8.60;88.00;;;;;;4973589;28;20518;-84
2021/05/05 09:38:19;;;;;;;11.02;1.67;;;8.60;87.80;;;;;;4974313;28;20054;-84
2021/05/05 09:40:57;;;;;;;10.52;1.73;;;8.60;87.80;;;;;;4972659;28;20073;-83
2021/05/05 09:43:22;;;;;;;14.63;2.17;;;8.60;87.60;;;;;;4973821;28;20058;-84
2021/05/05 09:45:48;;;;;;;12.90;2.10;;;8.60;88.30;;;;;;4972693;28;20510;-83
2021/05/05 09:48:22;;;;;;;9.70;1.50;;;8.70;87.80;;;;;;4973783;28;20051;-84
2021/05/05 09:50:48;;;;;;;9.80;1.77;;;8.70;87.60;;;;;;4973528;28;20055;-83
2021/05/05 09:53:19;;;;;;;8.65;1.70;;;8.70;87.40;;;;;;4972990;28;20054;-84
2021/05/05 09:56:10;;;;;;;10.43;2.17;;;8.70;86.90;;;;;;4973341;28;20405;-84
2021/05/05 09:58:38;;;;;;;9.32;1.50;;;8.80;86.50;;;;;;4973953;28;20054;-84
2021/05/05 10:01:04;;;;;;;9.32;1.77;;;8.80;86.00;;;;;;4972940;28;20133;-84
2021/05/05 10:03:48;;;;;;;8.57;1.70;;;8.90;85.30;;;;;;4973729;28;20070;-83
2021/05/05 10:06:23;;;;;;;9.95;1.52;;;8.90;85.40;;;;;;4973430;28;20043;-83
2021/05/05 10:08:51;;;;;;;9.45;1.45;;;8.90;85.70;;;;;;4972940;28;20053;-83
2021/05/05 10:11:22;;;;;;;15.18;2.22;;;8.90;86.20;;;;;;4973802;28;20083;-83
2021/05/05 10:13:51;;;;;;;10.95;1.83;;;8.90;86.40;;;;;;4973239;28;20478;-83
2021/05/05 10:16:17;;;;;;;12.32;2.25;;;8.90;86.30;;;;;;4973468;28;20162;-84
2021/05/05 10:18:46;;;;;;;13.55;2.40;;;8.90;86.10;;;;;;4973286;28;20131;-83
2021/05/05 10:21:18;;;;;;;12.25;2.38;;;8.90;86.30;;;;;;4972831;28;20433;-83
2021/05/05 10:23:44;;;;;;;12.07;2.13;;;8.90;86.50;;;;;;4973386;28;20051;-83
2021/05/05 10:26:13;;;;;;;13.95;2.30;;;9.00;86.60;;;;;;4973546;28;20501;-83
2021/05/05 10:28:39;;;;;;;17.30;2.50;;;9.10;86.50;;;;;;4972379;28;20050;-83
2021/05/05 10:31:16;;;;;;;16.38;2.38;;;9.20;86.80;;;;;;4973522;28;20053;-83
2021/05/05 10:33:45;;;;;;;14.70;2.63;;;9.30;86.60;;;;;;4973359;28;20066;-83
2021/05/05 10:36:29;;;;;;;15.95;2.38;;;9.40;85.80;;;;;;4975393;28;20046;-83
2021/05/05 10:38:54;;;;;;;;;;;9.60;84.90;;;;;;4976671;28;20530;-83
2021/05/05 10:41:22;;;;;;;14.07;2.22;;;9.50;83.60;;;;;;4976631;28;19922;-83
2021/05/05 10:43:49;;;;;;;6.80;1.20;;;9.60;84.50;;;;;;4975456;28;20059;-83
2021/05/05 10:46:24;;;;;;;11.60;1.23;;;9.50;83.60;;;;;;4976835;28;20055;-83
2021/05/05 10:49:16;;;;;;;10.95;1.63;;;9.50;83.70;;;;;;4976277;28;20043;-82
2021/05/05 10:51:44;;;;;;;12.32;1.73;;;9.40;83.90;;;;;;4976486;28;20054;-83
2021/05/05 10:54:21;;;;;;;12.40;2.10;;;9.30;84.60;;;;;;4976503;28;20051;-83
2021/05/05 10:57:09;;;;;;;14.10;2.10;;;9.30;85.50;;;;;;4975571;28;20411;-83
2021/05/05 10:59:57;;;;;;;10.50;2.00;;;9.30;86.40;;;;;;4976457;28;20058;-83
2021/05/05 11:02:46;;;;;;;12.68;1.98;;;9.40;86.80;;;;;;4976162;28;20054;-82
2021/05/05 11:05:16;;;;;;;11.90;2.58;;;9.50;86.20;;;;;;4975418;28;20423;-83
2021/05/05 11:07:47;;;;;;;17.40;2.20;;;9.60;85.70;;;;;;4975996;28;20074;-83
2021/05/05 11:10:37;;;;;;;11.60;2.30;;;9.70;85.20;;;;;;4970463;28;20418;-86
2021/05/05 11:13:17;;;;;;;13.75;2.45;;;9.70;84.00;;;;;;4968737;28;20127;-88
2021/05/05 11:15:43;;;;;;;14.25;2.75;;;9.80;84.00;;;;;;4967361;28;20109;-88
2021/05/05 11:20:58;;;;;;;;;;;9.90;83.40;;;;;;4965227;28;20082;-88
2021/05/05 11:23:33;;;;;;;15.98;2.85;;;9.90;82.10;;;;;;4959231;28;19927;-87
2021/05/05 11:26:28;;;;;;;13.18;2.50;;;9.90;83.20;;;;;;4955648;28;20047;-87
2021/05/05 11:28:59;;;;;;;15.07;2.47;;;9.90;81.80;;;;;;4956542;28;20511;-88
2021/05/05 11:31:44;;;;;;;17.25;2.50;;;10.00;82.20;;;;;;4971229;28;20055;-88
2021/05/05 11:34:28;;;;;;;15.02;2.83;;;10.10;81.10;;;;;;4966578;28;20051;-89
2021/05/05 11:37:08;;;;;;;16.17;2.70;;;10.10;80.60;;;;;;4971981;28;20483;-88
2021/05/05 11:39:39;;;;;;;19.98;2.90;;;10.20;79.90;;;;;;4970962;28;20487;-91
2021/05/05 11:42:07;;;;;;;16.88;2.13;;;10.30;79.60;;;;;;4973596;28;20054;-92
2021/05/05 11:44:56;;;;;;;16.42;2.95;;;10.40;78.60;;;;;;4958565;28;20070;-88
2021/05/05 11:47:26;;;;;;;18.33;3.10;;;10.40;77.10;;;;;;4962452;28;20486;-88
2021/05/05 11:49:52;;;;;;;15.40;2.75;;;10.50;78.10;;;;;;4960529;28;20143;-88
2021/05/05 11:52:28;;;;;;;16.67;2.75;;;10.50;77.60;;;;;;4972572;28;20433;-88
2021/05/05 11:55:13;;;;;;;17.73;3.10;;;10.60;77.30;;;;;;4972192;28;20057;-90
2021/05/05 11:58:09;;;;;;;20.70;3.47;;;10.60;77.30;;;;;;4955707;28;20127;-89
2021/05/05 12:00:39;;;;;;;18.92;3.47;;;10.50;77.30;;;;;;4955433;28;20058;-89
2021/05/05 12:03:12;;;;;;;19.58;3.20;;;10.60;78.00;;;;;;4963654;28;20054;-88
2021/05/05 12:05:44;;;;;;;15.27;2.65;;;10.60;77.50;;;;;;4973784;28;20499;-88
2021/05/05 12:08:16;;;;;;;17.52;2.92;;;10.60;78.00;;;;;;4974259;28;20046;-86
2021/05/05 12:10:52;;;;;;;14.80;3.42;;;10.60;77.90;;;;;;4974965;28;20057;-88
2021/05/05 12:13:28;;;;;;;17.73;2.72;;;10.50;76.80;;;;;;4972609;28;20046;-86
2021/05/05 12:16:06;;;;;;;18.38;3.15;;;10.50;76.90;;;;;;4974708;28;20054;-87
2021/05/05 12:18:36;;;;;;;18.45;3.33;;;10.50;77.30;;;;;;4974657;28;20046;-87
2021/05/05 12:21:14;;;;;;;20.38;3.47;;;10.40;77.50;;;;;;4973258;28;20042;-87
2021/05/05 12:23:52;;;;;;;15.52;2.95;;;10.40;77.40;;;;;;4974370;28;20054;-88
2021/05/05 12:26:29;;;;;;;18.95;3.28;;;10.40;76.30;;;;;;4974456;28;20055;-86
2021/05/05 12:28:57;;;;;;;17.73;2.78;;;10.40;76.70;;;;;;4954494;29;20090;-86
2021/05/05 12:31:25;;;;;;;21.05;3.22;;;10.50;76.30;;;;;;4955566;29;20131;-85
2021/05/05 12:33:51;;;;;;;24.35;3.58;;;10.50;75.70;;;;;;4954778;29;20051;-88
2021/05/05 12:36:22;;;;;;;25.35;3.78;;;10.50;75.80;;;;;;4963063;28;20055;-86
2021/05/05 12:38:52;;;;;;;17.20;3.42;;;10.50;76.60;;;;;;4974065;28;20051;-86
2021/05/05 12:41:24;;;;;;;19.50;3.47;;;10.50;75.70;;;;;;4974675;28;20054;-86
2021/05/05 12:43:52;;;;;;;19.13;3.80;;;10.60;75.50;;;;;;4973539;28;20074;-86
2021/05/05 12:46:23;;;;;;;19.02;3.65;;;10.60;74.30;;;;;;4974393;28;20057;-84
2021/05/05 12:48:50;;;;;;;23.95;4.07;;;10.60;73.90;;;;;;4973382;28;20042;-85
2021/05/05 12:51:21;;;;;;;20.73;3.45;;;10.50;74.90;;;;;;4968379;28;20059;-86
2021/05/05 12:53:58;;;;;;;24.58;3.78;;;10.50;74.30;;;;;;4971289;28;20105;-86
2021/05/05 12:56:47;;;;;;;14.77;3.08;;;10.50;73.70;;;;;;4967475;28;20061;-87
2021/05/05 12:59:34;;;;;;;18.10;3.17;;;10.50;73.10;;;;;;4973681;28;20062;-84
2021/05/05 13:02:11;;;;;;;20.73;3.67;;;10.50;74.00;;;;;;4973529;28;20126;-86
2021/05/05 13:04:42;;;;;;;19.33;3.60;;;10.50;73.40;;;;;;4972946;28;20495;-85
2021/05/05 13:07:39;;;;;;;21.50;3.88;;;10.50;72.90;;;;;;4963297;28;20049;-86
2021/05/05 13:10:11;;;;;;;20.45;3.72;;;10.50;71.40;;;;;;4958731;28;20070;-85